sensor_id;sensor_type;location;lat;lon;timestamp;pressure;altitude;pressure_sealevel;temperature;humidity
66742;BME280;53654;54.152;19.432;2023-05-01T00:01:44;102215.50;;;4.46;72.17
66742;BME280;53654;54.152;19.432;2023-05-01T00:04:13;102207.52;;;4.45;72.05
66742;BME280;53654;54.152;19.432;2023-05-01T00:06:42;102209.20;;;4.44;71.60
66742;BME280;53654;54.152;19.432;2023-05-01T00:09:10;102212.02;;;4.41;71.56
66742;BME280;53654;54.152;19.432;2023-05-01T00:11:38;102211.64;;;4.40;71.69
66742;BME280;53654;54.152;19.432;2023-05-01T00:14:06;102215.05;;;4.39;71.62
66742;BME280;53654;54.152;19.432;2023-05-01T00:16:34;102213.08;;;4.37;71.88
66742;BME280;53654;54.152;19.432;2023-05-01T00:19:03;102213.65;;;4.34;71.79
66742;BME280;53654;54.152;19.432;2023-05-01T00:21:31;102215.51;;;4.33;71.83
66742;BME280;53654;54.152;19.432;2023-05-01T00:23:59;102211.14;;;4.32;71.86
66742;BME280;53654;54.152;19.432;2023-05-01T00:26:27;102210.11;;;4.28;71.94
66742;BME280;53654;54.152;19.432;2023-05-01T00:28:58;102211.51;;;4.24;72.14
66742;BME280;53654;54.152;19.432;2023-05-01T00:31:26;102210.98;;;4.24;72.49
66742;BME280;53654;54.152;19.432;2023-05-01T00:33:54;102209.79;;;4.25;72.28
66742;BME280;53654;54.152;19.432;2023-05-01T00:36:23;102202.70;;;4.24;72.47
66742;BME280;53654;54.152;19.432;2023-05-01T00:38:51;102204.77;;;4.24;72.12
66742;BME280;53654;54.152;19.432;2023-05-01T00:41:19;102200.44;;;4.24;72.32
66742;BME280;53654;54.152;19.432;2023-05-01T00:43:47;102200.11;;;4.24;72.47
66742;BME280;53654;54.152;19.432;2023-05-01T00:46:16;102198.04;;;4.24;72.51
66742;BME280;53654;54.152;19.432;2023-05-01T00:48:45;102196.46;;;4.24;72.43
66742;BME280;53654;54.152;19.432;2023-05-01T00:51:14;102200.95;;;4.24;72.15
66742;BME280;53654;54.152;19.432;2023-05-01T00:53:42;102198.63;;;4.21;72.19
66742;BME280;53654;54.152;19.432;2023-05-01T00:56:11;102199.77;;;4.19;72.36
66742;BME280;53654;54.152;19.432;2023-05-01T00:58:39;102200.03;;;4.17;72.27
66742;BME280;53654;54.152;19.432;2023-05-01T01:01:09;102197.69;;;4.15;72.47
66742;BME280;53654;54.152;19.432;2023-05-01T01:03:37;102195.42;;;4.15;72.63
66742;BME280;53654;54.152;19.432;2023-05-01T01:12:33;102194.63;;;4.08;72.66
66742;BME280;53654;54.152;19.432;2023-05-01T01:15:13;102196.42;;;4.05;72.70
66742;BME280;53654;54.152;19.432;2023-05-01T01:18:08;102201.39;;;4.04;72.88
66742;BME280;53654;54.152;19.432;2023-05-01T01:36:15;102193.52;;;4.02;73.66
66742;BME280;53654;54.152;19.432;2023-05-01T01:41:47;102194.97;;;3.91;73.54
66742;BME280;53654;54.152;19.432;2023-05-01T01:44:32;102193.65;;;3.89;73.72
66742;BME280;53654;54.152;19.432;2023-05-01T01:47:06;102192.16;;;3.86;73.78
66742;BME280;53654;54.152;19.432;2023-05-01T01:49:38;102189.16;;;3.84;73.75
66742;BME280;53654;54.152;19.432;2023-05-01T01:52:09;102191.67;;;3.83;73.75
66742;BME280;53654;54.152;19.432;2023-05-01T01:54:53;102189.63;;;3.79;73.84
66742;BME280;53654;54.152;19.432;2023-05-01T01:57:26;102179.65;;;3.76;73.72
66742;BME280;53654;54.152;19.432;2023-05-01T01:59:56;102175.65;;;3.75;73.77
66742;BME280;53654;54.152;19.432;2023-05-01T02:02:26;102174.60;;;3.75;73.75
66742;BME280;53654;54.152;19.432;2023-05-01T02:04:56;102173.45;;;3.73;73.89
66742;BME280;53654;54.152;19.432;2023-05-01T02:07:28;102172.38;;;3.71;73.90
66742;BME280;53654;54.152;19.432;2023-05-01T02:09:56;102173.39;;;3.71;73.96
66742;BME280;53654;54.152;19.432;2023-05-01T02:12:26;102169.17;;;3.69;73.81
66742;BME280;53654;54.152;19.432;2023-05-01T02:14:56;102165.77;;;3.66;73.88
66742;BME280;53654;54.152;19.432;2023-05-01T02:17:26;102162.73;;;3.60;73.83
66742;BME280;53654;54.152;19.432;2023-05-01T02:19:56;102159.67;;;3.52;74.14
66742;BME280;53654;54.152;19.432;2023-05-01T02:22:25;102159.24;;;3.50;74.46
66742;BME280;53654;54.152;19.432;2023-05-01T02:24:55;102156.14;;;3.50;74.34
66742;BME280;53654;54.152;19.432;2023-05-01T02:27:30;102157.41;;;3.48;74.31
66742;BME280;53654;54.152;19.432;2023-05-01T02:29:59;102154.92;;;3.46;74.46
66742;BME280;53654;54.152;19.432;2023-05-01T02:32:27;102150.23;;;3.46;74.60
66742;BME280;53654;54.152;19.432;2023-05-01T02:34:56;102148.98;;;3.44;74.60
66742;BME280;53654;54.152;19.432;2023-05-01T02:37:24;102151.10;;;3.42;74.53
66742;BME280;53654;54.152;19.432;2023-05-01T02:39:53;102151.32;;;3.42;74.70
66742;BME280;53654;54.152;19.432;2023-05-01T02:42:23;102150.90;;;3.45;74.86
66742;BME280;53654;54.152;19.432;2023-05-01T02:45:03;102152.32;;;3.46;74.74
66742;BME280;53654;54.152;19.432;2023-05-01T02:47:35;102151.05;;;3.44;74.55
66742;BME280;53654;54.152;19.432;2023-05-01T02:50:05;102152.20;;;3.43;74.72
66742;BME280;53654;54.152;19.432;2023-05-01T02:52:35;102152.34;;;3.42;74.60
66742;BME280;53654;54.152;19.432;2023-05-01T02:55:30;102156.87;;;3.39;74.54
66742;BME280;53654;54.152;19.432;2023-05-01T02:57:59;102152.42;;;3.40;74.65
66742;BME280;53654;54.152;19.432;2023-05-01T03:00:27;102152.31;;;3.42;74.69
66742;BME280;53654;54.152;19.432;2023-05-01T03:02:55;102151.77;;;3.41;74.68
66742;BME280;53654;54.152;19.432;2023-05-01T03:05:24;102152.93;;;3.40;74.51
66742;BME280;53654;54.152;19.432;2023-05-01T03:07:52;102148.77;;;3.39;74.47
66742;BME280;53654;54.152;19.432;2023-05-01T03:10:20;102143.95;;;3.40;74.48
66742;BME280;53654;54.152;19.432;2023-05-01T03:12:48;102144.19;;;3.41;74.76
66742;BME280;53654;54.152;19.432;2023-05-01T03:15:16;102143.91;;;3.43;74.61
66742;BME280;53654;54.152;19.432;2023-05-01T03:17:45;102144.02;;;3.45;74.50
66742;BME280;53654;54.152;19.432;2023-05-01T03:20:13;102144.95;;;3.47;74.74
66742;BME280;53654;54.152;19.432;2023-05-01T03:22:41;102143.61;;;3.47;74.39
66742;BME280;53654;54.152;19.432;2023-05-01T03:25:09;102145.12;;;3.47;74.13
66742;BME280;53654;54.152;19.432;2023-05-01T03:27:38;102144.60;;;3.47;74.16
66742;BME280;53654;54.152;19.432;2023-05-01T03:30:06;102143.53;;;3.46;74.33
66742;BME280;53654;54.152;19.432;2023-05-01T03:32:37;102146.17;;;3.47;74.48
66742;BME280;53654;54.152;19.432;2023-05-01T03:35:06;102148.80;;;3.48;74.45
66742;BME280;53654;54.152;19.432;2023-05-01T03:37:35;102147.02;;;3.51;74.33
66742;BME280;53654;54.152;19.432;2023-05-01T03:40:04;102151.45;;;3.53;74.11
66742;BME280;53654;54.152;19.432;2023-05-01T03:42:51;102151.81;;;3.54;74.21
66742;BME280;53654;54.152;19.432;2023-05-01T03:45:21;102150.03;;;3.57;74.12
66742;BME280;53654;54.152;19.432;2023-05-01T03:47:49;102151.38;;;3.61;73.99
66742;BME280;53654;54.152;19.432;2023-05-01T03:50:18;102149.09;;;3.64;73.95
66742;BME280;53654;54.152;19.432;2023-05-01T03:52:46;102152.78;;;3.65;73.74
66742;BME280;53654;54.152;19.432;2023-05-01T03:55:15;102149.81;;;3.68;73.71
66742;BME280;53654;54.152;19.432;2023-05-01T03:57:46;102148.88;;;3.71;73.87
66742;BME280;53654;54.152;19.432;2023-05-01T04:00:14;102152.52;;;3.75;73.70
66742;BME280;53654;54.152;19.432;2023-05-01T04:02:42;102152.32;;;3.79;73.72
66742;BME280;53654;54.152;19.432;2023-05-01T04:05:14;102151.83;;;3.83;73.73
66742;BME280;53654;54.152;19.432;2023-05-01T04:07:46;102145.69;;;3.89;74.02
66742;BME280;53654;54.152;19.432;2023-05-01T04:10:14;102151.30;;;3.96;73.75
66742;BME280;53654;54.152;19.432;2023-05-01T04:12:50;102147.73;;;4.02;73.69
66742;BME280;53654;54.152;19.432;2023-05-01T04:15:18;102151.69;;;4.09;73.63
66742;BME280;53654;54.152;19.432;2023-05-01T04:17:47;102146.83;;;4.17;73.45
66742;BME280;53654;54.152;19.432;2023-05-01T04:20:16;102147.02;;;4.27;73.64
66742;BME280;53654;54.152;19.432;2023-05-01T04:22:46;102150.55;;;4.38;73.30
66742;BME280;53654;54.152;19.432;2023-05-01T04:25:15;102152.91;;;4.49;72.96
66742;BME280;53654;54.152;19.432;2023-05-01T04:27:44;102145.44;;;4.62;72.66
66742;BME280;53654;54.152;19.432;2023-05-01T04:30:12;102141.23;;;4.74;72.48
66742;BME280;53654;54.152;19.432;2023-05-01T04:32:40;102141.78;;;4.89;72.28
66742;BME280;53654;54.152;19.432;2023-05-01T04:35:08;102144.66;;;5.01;71.80
66742;BME280;53654;54.152;19.432;2023-05-01T04:37:37;102141.48;;;5.43;72.07
66742;BME280;53654;54.152;19.432;2023-05-01T04:40:06;102140.50;;;6.38;70.75
66742;BME280;53654;54.152;19.432;2023-05-01T04:42:38;102144.41;;;7.51;68.15
66742;BME280;53654;54.152;19.432;2023-05-01T04:45:08;102136.33;;;8.63;65.10
66742;BME280;53654;54.152;19.432;2023-05-01T04:47:37;102136.17;;;9.71;61.53
66742;BME280;53654;54.152;19.432;2023-05-01T04:50:06;102134.61;;;10.71;58.27
66742;BME280;53654;54.152;19.432;2023-05-01T04:52:35;102130.98;;;11.68;55.21
66742;BME280;53654;54.152;19.432;2023-05-01T04:55:04;102129.70;;;12.56;52.14
66742;BME280;53654;54.152;19.432;2023-05-01T04:57:34;102130.36;;;13.30;49.19
66742;BME280;53654;54.152;19.432;2023-05-01T05:00:06;102125.86;;;13.90;47.39
66742;BME280;53654;54.152;19.432;2023-05-01T05:02:40;102124.09;;;14.17;45.62
66742;BME280;53654;54.152;19.432;2023-05-01T05:05:09;102123.55;;;14.21;44.84
66742;BME280;53654;54.152;19.432;2023-05-01T05:07:37;102124.10;;;14.13;44.86
66742;BME280;53654;54.152;19.432;2023-05-01T05:10:41;102131.83;;;13.96;44.26
66742;BME280;53654;54.152;19.432;2023-05-01T05:13:19;102128.31;;;14.04;44.02
66742;BME280;53654;54.152;19.432;2023-05-01T05:15:51;102126.01;;;14.20;44.25
66742;BME280;53654;54.152;19.432;2023-05-01T05:18:21;102125.11;;;14.39;43.92
66742;BME280;53654;54.152;19.432;2023-05-01T05:20:49;102127.92;;;14.48;42.98
66742;BME280;53654;54.152;19.432;2023-05-01T05:23:18;102124.77;;;14.45;43.08
66742;BME280;53654;54.152;19.432;2023-05-01T05:25:46;102125.64;;;14.46;43.31
66742;BME280;53654;54.152;19.432;2023-05-01T05:28:14;102125.11;;;14.34;42.86
66742;BME280;53654;54.152;19.432;2023-05-01T05:30:42;102129.02;;;14.07;43.32
66742;BME280;53654;54.152;19.432;2023-05-01T05:33:13;102123.02;;;14.27;43.66
66742;BME280;53654;54.152;19.432;2023-05-01T05:35:41;102125.69;;;14.81;42.90
66742;BME280;53654;54.152;19.432;2023-05-01T05:38:10;102122.40;;;15.41;42.19
66742;BME280;53654;54.152;19.432;2023-05-01T05:40:40;102125.95;;;15.89;41.73
66742;BME280;53654;54.152;19.432;2023-05-01T05:43:08;102125.17;;;16.33;41.04
66742;BME280;53654;54.152;19.432;2023-05-01T05:45:37;102127.20;;;16.74;39.43
66742;BME280;53654;54.152;19.432;2023-05-01T05:48:05;102130.42;;;16.99;39.19
66742;BME280;53654;54.152;19.432;2023-05-01T05:50:36;102132.21;;;17.10;38.55
66742;BME280;53654;54.152;19.432;2023-05-01T05:53:04;102132.23;;;17.08;37.69
66742;BME280;53654;54.152;19.432;2023-05-01T05:55:32;102129.81;;;16.91;38.35
66742;BME280;53654;54.152;19.432;2023-05-01T05:58:04;102132.77;;;16.64;38.77
66742;BME280;53654;54.152;19.432;2023-05-01T06:00:32;102134.27;;;16.39;39.09
66742;BME280;53654;54.152;19.432;2023-05-01T06:03:03;102131.65;;;16.01;39.45
66742;BME280;53654;54.152;19.432;2023-05-01T06:05:32;102136.46;;;15.94;39.86
66742;BME280;53654;54.152;19.432;2023-05-01T06:08:01;102137.76;;;16.25;40.01
66742;BME280;53654;54.152;19.432;2023-05-01T06:10:29;102135.41;;;16.64;39.45
66742;BME280;53654;54.152;19.432;2023-05-01T06:12:58;102136.52;;;17.04;38.43
66742;BME280;53654;54.152;19.432;2023-05-01T06:15:41;102136.36;;;17.40;38.12
66742;BME280;53654;54.152;19.432;2023-05-01T06:18:11;102130.62;;;17.71;37.37
66742;BME280;53654;54.152;19.432;2023-05-01T06:20:40;102132.46;;;17.98;36.81
66742;BME280;53654;54.152;19.432;2023-05-01T06:23:08;102130.90;;;18.26;36.17
66742;BME280;53654;54.152;19.432;2023-05-01T06:25:59;102131.23;;;18.37;36.07
66742;BME280;53654;54.152;19.432;2023-05-01T06:28:28;102131.46;;;18.53;35.92
66742;BME280;53654;54.152;19.432;2023-05-01T06:30:56;102130.55;;;18.73;35.49
66742;BME280;53654;54.152;19.432;2023-05-01T06:33:25;102127.38;;;18.73;35.36
66742;BME280;53654;54.152;19.432;2023-05-01T06:36:02;102126.76;;;18.58;35.71
66742;BME280;53654;54.152;19.432;2023-05-01T06:38:31;102118.41;;;18.42;36.13
66742;BME280;53654;54.152;19.432;2023-05-01T06:41:00;102114.45;;;18.17;36.32
66742;BME280;53654;54.152;19.432;2023-05-01T06:43:28;102114.61;;;17.89;36.61
66742;BME280;53654;54.152;19.432;2023-05-01T06:45:58;102115.52;;;17.65;37.43
66742;BME280;53654;54.152;19.432;2023-05-01T06:48:26;102118.27;;;17.36;37.72
66742;BME280;53654;54.152;19.432;2023-05-01T06:50:55;102119.23;;;17.05;38.48
66742;BME280;53654;54.152;19.432;2023-05-01T06:53:23;102122.02;;;16.95;39.10
66742;BME280;53654;54.152;19.432;2023-05-01T06:55:51;102122.80;;;16.88;38.28
66742;BME280;53654;54.152;19.432;2023-05-01T06:58:19;102123.64;;;16.61;38.70
66742;BME280;53654;54.152;19.432;2023-05-01T07:00:52;102118.61;;;16.38;38.67
66742;BME280;53654;54.152;19.432;2023-05-01T07:03:20;102121.32;;;16.14;40.09
66742;BME280;53654;54.152;19.432;2023-05-01T07:05:49;102120.65;;;15.92;40.46
66742;BME280;53654;54.152;19.432;2023-05-01T07:08:17;102116.05;;;15.74;40.23
66742;BME280;53654;54.152;19.432;2023-05-01T07:10:45;102116.13;;;15.64;40.54
66742;BME280;53654;54.152;19.432;2023-05-01T07:13:13;102112.80;;;15.53;40.81
66742;BME280;53654;54.152;19.432;2023-05-01T07:15:41;102110.64;;;15.36;41.36
66742;BME280;53654;54.152;19.432;2023-05-01T07:18:09;102113.73;;;15.21;41.98
66742;BME280;53654;54.152;19.432;2023-05-01T07:20:39;102117.32;;;15.06;42.49
66742;BME280;53654;54.152;19.432;2023-05-01T07:23:07;102115.81;;;14.92;41.97
66742;BME280;53654;54.152;19.432;2023-05-01T07:25:36;102113.23;;;14.78;42.28
66742;BME280;53654;54.152;19.432;2023-05-01T07:28:04;102114.52;;;14.66;42.13
66742;BME280;53654;54.152;19.432;2023-05-01T07:30:35;102114.21;;;14.51;42.79
66742;BME280;53654;54.152;19.432;2023-05-01T07:33:03;102112.48;;;14.43;42.98
66742;BME280;53654;54.152;19.432;2023-05-01T07:35:33;102110.53;;;14.36;42.90
66742;BME280;53654;54.152;19.432;2023-05-01T07:38:01;102107.40;;;14.29;42.72
66742;BME280;53654;54.152;19.432;2023-05-01T07:40:31;102107.06;;;14.17;43.17
66742;BME280;53654;54.152;19.432;2023-05-01T07:43:00;102106.02;;;14.11;42.89
66742;BME280;53654;54.152;19.432;2023-05-01T07:45:28;102101.83;;;14.03;43.03
66742;BME280;53654;54.152;19.432;2023-05-01T07:47:57;102104.29;;;13.94;41.79
66742;BME280;53654;54.152;19.432;2023-05-01T07:50:25;102103.23;;;13.85;42.18
66742;BME280;53654;54.152;19.432;2023-05-01T07:52:53;102104.99;;;13.80;42.71
66742;BME280;53654;54.152;19.432;2023-05-01T07:55:22;102107.45;;;13.77;43.41
66742;BME280;53654;54.152;19.432;2023-05-01T07:57:50;102111.13;;;13.78;42.63
66742;BME280;53654;54.152;19.432;2023-05-01T08:00:18;102109.04;;;13.76;42.31
66742;BME280;53654;54.152;19.432;2023-05-01T08:02:47;102104.83;;;13.70;43.38
66742;BME280;53654;54.152;19.432;2023-05-01T08:05:15;102103.77;;;13.67;43.97
66742;BME280;53654;54.152;19.432;2023-05-01T08:07:44;102103.24;;;13.66;44.46
66742;BME280;53654;54.152;19.432;2023-05-01T08:10:12;102102.02;;;13.66;44.74
66742;BME280;53654;54.152;19.432;2023-05-01T08:12:40;102102.02;;;13.67;44.04
66742;BME280;53654;54.152;19.432;2023-05-01T08:15:08;102098.86;;;13.67;42.50
66742;BME280;53654;54.152;19.432;2023-05-01T08:17:37;102095.52;;;13.63;43.65
66742;BME280;53654;54.152;19.432;2023-05-01T08:20:06;102098.16;;;13.66;45.16
66742;BME280;53654;54.152;19.432;2023-05-01T08:22:34;102101.14;;;13.69;44.13
66742;BME280;53654;54.152;19.432;2023-05-01T08:25:03;102097.46;;;13.67;44.28
66742;BME280;53654;54.152;19.432;2023-05-01T08:27:32;102093.77;;;13.67;44.91
66742;BME280;53654;54.152;19.432;2023-05-01T08:30:00;102095.00;;;13.70;44.47
66742;BME280;53654;54.152;19.432;2023-05-01T08:32:28;102090.62;;;13.72;44.01
66742;BME280;53654;54.152;19.432;2023-05-01T08:34:57;102089.73;;;13.75;43.94
66742;BME280;53654;54.152;19.432;2023-05-01T08:37:25;102091.50;;;13.80;43.18
66742;BME280;53654;54.152;19.432;2023-05-01T08:39:53;102091.85;;;13.84;41.73
66742;BME280;53654;54.152;19.432;2023-05-01T08:42:22;102094.11;;;13.90;41.29
66742;BME280;53654;54.152;19.432;2023-05-01T08:44:51;102090.95;;;13.94;40.66
66742;BME280;53654;54.152;19.432;2023-05-01T08:47:21;102085.51;;;13.97;41.56
66742;BME280;53654;54.152;19.432;2023-05-01T08:49:49;102086.38;;;14.03;41.40
66742;BME280;53654;54.152;19.432;2023-05-01T08:52:19;102086.02;;;14.10;41.11
66742;BME280;53654;54.152;19.432;2023-05-01T08:54:49;102082.13;;;14.23;42.22
66742;BME280;53654;54.152;19.432;2023-05-01T08:57:19;102083.49;;;14.42;42.21
66742;BME280;53654;54.152;19.432;2023-05-01T08:59:49;102081.66;;;14.67;41.72
66742;BME280;53654;54.152;19.432;2023-05-01T09:02:18;102077.55;;;14.84;40.38
66742;BME280;53654;54.152;19.432;2023-05-01T09:04:49;102077.45;;;15.03;41.66
66742;BME280;53654;54.152;19.432;2023-05-01T09:07:17;102077.13;;;15.25;40.86
66742;BME280;53654;54.152;19.432;2023-05-01T09:09:45;102072.09;;;15.41;40.83
66742;BME280;53654;54.152;19.432;2023-05-01T09:12:21;102075.68;;;15.58;41.50
66742;BME280;53654;54.152;19.432;2023-05-01T09:14:54;102069.25;;;15.73;40.47
66742;BME280;53654;54.152;19.432;2023-05-01T09:17:23;102063.52;;;15.84;40.32
66742;BME280;53654;54.152;19.432;2023-05-01T09:19:51;102061.52;;;15.92;40.02
66742;BME280;53654;54.152;19.432;2023-05-01T09:22:20;102064.25;;;16.01;37.98
66742;BME280;53654;54.152;19.432;2023-05-01T09:24:48;102059.60;;;16.08;35.66
66742;BME280;53654;54.152;19.432;2023-05-01T09:27:16;102058.14;;;16.12;34.89
66742;BME280;53654;54.152;19.432;2023-05-01T09:29:46;102053.70;;;16.16;34.54
66742;BME280;53654;54.152;19.432;2023-05-01T09:32:19;102056.30;;;16.21;34.64
66742;BME280;53654;54.152;19.432;2023-05-01T09:34:49;102057.91;;;16.33;34.23
66742;BME280;53654;54.152;19.432;2023-05-01T09:40:12;102050.56;;;16.44;35.29
66742;BME280;53654;54.152;19.432;2023-05-01T09:42:49;102040.55;;;16.42;36.17
66742;BME280;53654;54.152;19.432;2023-05-01T09:45:18;102047.73;;;16.45;36.52
66742;BME280;53654;54.152;19.432;2023-05-01T09:47:47;102044.83;;;16.52;36.72
66742;BME280;53654;54.152;19.432;2023-05-01T09:50:34;102041.03;;;16.59;37.90
66742;BME280;53654;54.152;19.432;2023-05-01T09:53:03;102039.73;;;16.65;37.98
66742;BME280;53654;54.152;19.432;2023-05-01T09:55:33;102031.63;;;16.67;37.46
66742;BME280;53654;54.152;19.432;2023-05-01T09:58:01;102033.38;;;16.68;36.50
66742;BME280;53654;54.152;19.432;2023-05-01T10:00:30;102031.38;;;16.57;35.57
66742;BME280;53654;54.152;19.432;2023-05-01T10:03:11;102031.08;;;16.53;36.44
66742;BME280;53654;54.152;19.432;2023-05-01T10:05:44;102025.23;;;16.41;35.95
66742;BME280;53654;54.152;19.432;2023-05-01T10:08:12;102021.29;;;16.18;36.31
66742;BME280;53654;54.152;19.432;2023-05-01T10:10:42;102021.66;;;16.01;36.83
66742;BME280;53654;54.152;19.432;2023-05-01T10:13:14;102021.67;;;15.99;38.02
66742;BME280;53654;54.152;19.432;2023-05-01T10:15:44;102023.35;;;16.06;38.10
66742;BME280;53654;54.152;19.432;2023-05-01T10:18:15;102019.03;;;16.15;38.53
66742;BME280;53654;54.152;19.432;2023-05-01T10:20:44;102015.98;;;16.20;38.68
66742;BME280;53654;54.152;19.432;2023-05-01T10:23:12;102013.24;;;16.28;37.71
66742;BME280;53654;54.152;19.432;2023-05-01T10:25:41;102008.10;;;16.31;38.04
66742;BME280;53654;54.152;19.432;2023-05-01T10:28:11;102006.50;;;16.32;37.57
66742;BME280;53654;54.152;19.432;2023-05-01T10:30:40;101997.31;;;16.21;37.21
66742;BME280;53654;54.152;19.432;2023-05-01T10:33:12;101989.71;;;16.08;38.67
66742;BME280;53654;54.152;19.432;2023-05-01T10:35:43;101988.52;;;16.05;38.86
66742;BME280;53654;54.152;19.432;2023-05-01T10:38:24;101989.14;;;15.98;37.81
66742;BME280;53654;54.152;19.432;2023-05-01T10:40:52;101986.29;;;15.85;38.36
66742;BME280;53654;54.152;19.432;2023-05-01T10:51:15;101966.10;;;15.63;39.28
66742;BME280;53654;54.152;19.432;2023-05-01T10:53:45;101964.35;;;15.58;37.57
66742;BME280;53654;54.152;19.432;2023-05-01T10:58:58;101960.38;;;15.48;39.26
66742;BME280;53654;54.152;19.432;2023-05-01T11:04:03;101957.29;;;15.39;39.58
66742;BME280;53654;54.152;19.432;2023-05-01T11:06:32;101959.98;;;15.35;39.79
66742;BME280;53654;54.152;19.432;2023-05-01T11:09:37;101955.24;;;15.32;39.41
66742;BME280;53654;54.152;19.432;2023-05-01T11:12:07;101944.66;;;15.16;39.87
66742;BME280;53654;54.152;19.432;2023-05-01T11:23:02;101941.58;;;14.84;40.58
66742;BME280;53654;54.152;19.432;2023-05-01T11:25:30;101932.15;;;14.76;40.33
66742;BME280;53654;54.152;19.432;2023-05-01T11:28:01;101929.89;;;14.72;41.07
66742;BME280;53654;54.152;19.432;2023-05-01T11:30:39;101924.25;;;14.75;41.89
66742;BME280;53654;54.152;19.432;2023-05-01T11:33:07;101923.34;;;14.81;40.93
66742;BME280;53654;54.152;19.432;2023-05-01T11:35:37;101919.92;;;14.90;41.31
66742;BME280;53654;54.152;19.432;2023-05-01T11:38:15;101919.15;;;14.99;41.02
66742;BME280;53654;54.152;19.432;2023-05-01T11:40:53;101917.70;;;15.04;39.93
66742;BME280;53654;54.152;19.432;2023-05-01T11:43:22;101912.93;;;15.06;39.16
66742;BME280;53654;54.152;19.432;2023-05-01T11:45:51;101908.17;;;15.08;38.43
66742;BME280;53654;54.152;19.432;2023-05-01T11:48:21;101906.63;;;15.04;38.42
66742;BME280;53654;54.152;19.432;2023-05-01T11:50:49;101899.44;;;15.03;39.22
66742;BME280;53654;54.152;19.432;2023-05-01T11:53:18;101901.70;;;15.05;39.02
66742;BME280;53654;54.152;19.432;2023-05-01T11:55:45;101901.51;;;15.07;38.94
66742;BME280;53654;54.152;19.432;2023-05-01T11:58:14;101900.05;;;15.14;38.32
66742;BME280;53654;54.152;19.432;2023-05-01T12:00:42;101898.40;;;15.21;37.60
66742;BME280;53654;54.152;19.432;2023-05-01T12:03:12;101890.30;;;15.21;36.61
66742;BME280;53654;54.152;19.432;2023-05-01T12:05:43;101889.63;;;15.19;37.32
66742;BME280;53654;54.152;19.432;2023-05-01T12:08:15;101889.63;;;15.19;38.40
66742;BME280;53654;54.152;19.432;2023-05-01T12:10:52;101882.23;;;15.20;38.31
66742;BME280;53654;54.152;19.432;2023-05-01T12:13:24;101878.70;;;15.22;36.85
66742;BME280;53654;54.152;19.432;2023-05-01T12:15:54;101874.86;;;15.20;35.48
66742;BME280;53654;54.152;19.432;2023-05-01T12:18:23;101872.02;;;15.22;36.32
66742;BME280;53654;54.152;19.432;2023-05-01T12:20:53;101866.17;;;15.27;36.46
66742;BME280;53654;54.152;19.432;2023-05-01T12:23:33;101859.98;;;15.30;36.13
66742;BME280;53654;54.152;19.432;2023-05-01T12:26:14;101858.45;;;15.25;35.46
66742;BME280;53654;54.152;19.432;2023-05-01T12:28:57;101857.48;;;15.16;36.25
66742;BME280;53654;54.152;19.432;2023-05-01T12:31:26;101853.52;;;15.09;36.54
66742;BME280;53654;54.152;19.432;2023-05-01T12:34:03;101849.44;;;15.12;36.93
66742;BME280;53654;54.152;19.432;2023-05-01T12:36:33;101846.60;;;15.15;37.37
66742;BME280;53654;54.152;19.432;2023-05-01T12:39:09;101839.00;;;15.19;36.45
66742;BME280;53654;54.152;19.432;2023-05-01T12:41:42;101837.39;;;15.23;36.62
66742;BME280;53654;54.152;19.432;2023-05-01T12:44:21;101839.25;;;15.29;37.06
66742;BME280;53654;54.152;19.432;2023-05-01T12:47:03;101830.38;;;15.36;36.93
66742;BME280;53654;54.152;19.432;2023-05-01T12:49:31;101827.00;;;15.41;37.32
66742;BME280;53654;54.152;19.432;2023-05-01T12:52:00;101823.61;;;15.44;36.06
66742;BME280;53654;54.152;19.432;2023-05-01T12:54:30;101819.02;;;15.46;36.73
66742;BME280;53654;54.152;19.432;2023-05-01T12:57:08;101821.86;;;15.43;35.59
66742;BME280;53654;54.152;19.432;2023-05-01T12:59:38;101813.52;;;15.35;34.45
66742;BME280;53654;54.152;19.432;2023-05-01T13:02:08;101807.20;;;15.34;34.50
66742;BME280;53654;54.152;19.432;2023-05-01T13:04:40;101803.45;;;15.39;34.87
66742;BME280;53654;54.152;19.432;2023-05-01T13:07:16;101803.23;;;15.42;35.87
66742;BME280;53654;54.152;19.432;2023-05-01T13:09:53;101789.52;;;15.43;36.27
66742;BME280;53654;54.152;19.432;2023-05-01T13:12:23;101791.57;;;15.48;36.15
66742;BME280;53654;54.152;19.432;2023-05-01T13:14:52;101787.51;;;15.48;35.16
66742;BME280;53654;54.152;19.432;2023-05-01T13:17:25;101786.04;;;15.55;35.21
66742;BME280;53654;54.152;19.432;2023-05-01T13:19:58;101780.20;;;15.59;35.03
66742;BME280;53654;54.152;19.432;2023-05-01T13:22:36;101781.23;;;15.63;35.17
66742;BME280;53654;54.152;19.432;2023-05-01T13:25:15;101779.58;;;15.68;35.66
66742;BME280;53654;54.152;19.432;2023-05-01T13:27:48;101772.95;;;15.78;36.05
66742;BME280;53654;54.152;19.432;2023-05-01T13:30:29;101770.02;;;15.86;33.64
66742;BME280;53654;54.152;19.432;2023-05-01T13:32:57;101767.33;;;15.90;33.70
66742;BME280;53654;54.152;19.432;2023-05-01T13:35:26;101763.38;;;15.96;34.10
66742;BME280;53654;54.152;19.432;2023-05-01T13:37:54;101762.95;;;16.00;34.41
66742;BME280;53654;54.152;19.432;2023-05-01T13:40:23;101760.49;;;15.99;33.95
66742;BME280;53654;54.152;19.432;2023-05-01T13:42:53;101751.04;;;15.96;33.72
66742;BME280;53654;54.152;19.432;2023-05-01T13:45:21;101749.45;;;15.97;34.33
66742;BME280;53654;54.152;19.432;2023-05-01T13:47:49;101744.30;;;16.01;34.50
66742;BME280;53654;54.152;19.432;2023-05-01T13:50:18;101741.95;;;16.04;34.31